sensor_id;sensor_type;location;lat;lon;timestamp;P1;durP1;ratioP1;P2;durP2;ratioP2
66987;SDS011;53908;51.464;-2.588;2022-07-18T00:00:26;3.72;;;2.85;;
66987;SDS011;53908;51.464;-2.588;2022-07-18T00:02:52;3.05;;;2.75;;
66987;SDS011;53908;51.464;-2.588;2022-07-18T00:05:17;6.78;;;3.03;;
66987;SDS011;53908;51.464;-2.588;2022-07-18T00:07:43;5.55;;;3.03;;
66987;SDS011;53908;51.464;-2.588;2022-07-18T00:10:08;3.60;;;3.10;;
66987;SDS011;53908;51.464;-2.588;2022-07-18T00:12:34;4.25;;;3.28;;
66987;SDS011;53908;51.464;-2.588;2022-07-18T00:15:00;5.47;;;3.35;;
66987;SDS011;53908;51.464;-2.588;2022-07-18T00:17:25;7.32;;;3.15;;
66987;SDS011;53908;51.464;-2.588;2022-07-18T00:19:51;4.25;;;3.17;;
66987;SDS011;53908;51.464;-2.588;2022-07-18T00:22:17;4.63;;;2.95;;
66987;SDS011;53908;51.464;-2.588;2022-07-18T00:24:42;4.78;;;2.90;;
66987;SDS011;53908;51.464;-2.588;2022-07-18T00:27:08;4.47;;;3.05;;
66987;SDS011;53908;51.464;-2.588;2022-07-18T00:29:34;4.28;;;3.20;;
66987;SDS011;53908;51.464;-2.588;2022-07-18T00:32:04;5.85;;;3.17;;
66987;SDS011;53908;51.464;-2.588;2022-07-18T00:34:31;5.05;;;3.20;;
66987;SDS011;53908;51.464;-2.588;2022-07-18T00:36:56;4.53;;;3.22;;
66987;SDS011;53908;51.464;-2.588;2022-07-18T00:39:22;4.82;;;3.30;;
66987;SDS011;53908;51.464;-2.588;2022-07-18T00:41:48;6.78;;;3.67;;
66987;SDS011;53908;51.464;-2.588;2022-07-18T00:44:17;6.38;;;3.38;;
66987;SDS011;53908;51.464;-2.588;2022-07-18T00:46:51;9.02;;;3.40;;
66987;SDS011;53908;51.464;-2.588;2022-07-18T00:49:21;6.22;;;3.90;;
66987;SDS011;53908;51.464;-2.588;2022-07-18T00:51:47;7.07;;;3.40;;
66987;SDS011;53908;51.464;-2.588;2022-07-18T00:54:12;10.57;;;3.50;;
66987;SDS011;53908;51.464;-2.588;2022-07-18T00:56:38;9.70;;;3.72;;
66987;SDS011;53908;51.464;-2.588;2022-07-18T00:59:04;6.35;;;3.65;;
66987;SDS011;53908;51.464;-2.588;2022-07-18T01:01:29;12.27;;;3.88;;
66987;SDS011;53908;51.464;-2.588;2022-07-18T01:04:17;9.05;;;4.50;;
66987;SDS011;53908;51.464;-2.588;2022-07-18T01:06:45;7.88;;;4.30;;
66987;SDS011;53908;51.464;-2.588;2022-07-18T01:09:11;6.90;;;4.20;;
66987;SDS011;53908;51.464;-2.588;2022-07-18T01:11:37;8.52;;;4.35;;
66987;SDS011;53908;51.464;-2.588;2022-07-18T01:14:03;6.15;;;3.92;;
66987;SDS011;53908;51.464;-2.588;2022-07-18T01:16:30;7.47;;;4.22;;
66987;SDS011;53908;51.464;-2.588;2022-07-18T01:18:56;9.45;;;4.70;;
66987;SDS011;53908;51.464;-2.588;2022-07-18T01:21:22;6.63;;;4.15;;
66987;SDS011;53908;51.464;-2.588;2022-07-18T01:23:47;6.72;;;3.97;;
66987;SDS011;53908;51.464;-2.588;2022-07-18T01:26:13;6.60;;;4.47;;
66987;SDS011;53908;51.464;-2.588;2022-07-18T01:28:39;6.40;;;4.20;;
66987;SDS011;53908;51.464;-2.588;2022-07-18T01:31:05;7.95;;;4.43;;
66987;SDS011;53908;51.464;-2.588;2022-07-18T01:33:31;7.13;;;4.00;;
66987;SDS011;53908;51.464;-2.588;2022-07-18T01:36:01;5.18;;;4.00;;
66987;SDS011;53908;51.464;-2.588;2022-07-18T01:38:28;8.43;;;4.20;;
66987;SDS011;53908;51.464;-2.588;2022-07-18T01:40:55;5.97;;;3.83;;
66987;SDS011;53908;51.464;-2.588;2022-07-18T01:43:21;5.82;;;4.13;;
66987;SDS011;53908;51.464;-2.588;2022-07-18T01:45:50;7.35;;;3.90;;
66987;SDS011;53908;51.464;-2.588;2022-07-18T01:48:15;6.95;;;4.05;;
66987;SDS011;53908;51.464;-2.588;2022-07-18T01:50:42;10.73;;;4.03;;
66987;SDS011;53908;51.464;-2.588;2022-07-18T01:53:08;8.50;;;4.15;;
66987;SDS011;53908;51.464;-2.588;2022-07-18T01:55:33;5.65;;;3.97;;
66987;SDS011;53908;51.464;-2.588;2022-07-18T01:57:59;5.80;;;3.72;;
66987;SDS011;53908;51.464;-2.588;2022-07-18T02:00:24;5.20;;;3.80;;
66987;SDS011;53908;51.464;-2.588;2022-07-18T02:02:50;7.88;;;4.63;;
66987;SDS011;53908;51.464;-2.588;2022-07-18T02:05:15;4.97;;;3.53;;
66987;SDS011;53908;51.464;-2.588;2022-07-18T02:07:41;6.15;;;3.75;;
66987;SDS011;53908;51.464;-2.588;2022-07-18T02:10:15;5.10;;;3.80;;
66987;SDS011;53908;51.464;-2.588;2022-07-18T02:12:41;5.18;;;3.70;;
66987;SDS011;53908;51.464;-2.588;2022-07-18T02:15:08;5.60;;;3.70;;
66987;SDS011;53908;51.464;-2.588;2022-07-18T02:17:34;5.90;;;3.50;;
66987;SDS011;53908;51.464;-2.588;2022-07-18T02:20:00;6.90;;;4.00;;
66987;SDS011;53908;51.464;-2.588;2022-07-18T02:22:26;5.18;;;3.70;;
66987;SDS011;53908;51.464;-2.588;2022-07-18T02:24:52;5.35;;;3.60;;
66987;SDS011;53908;51.464;-2.588;2022-07-18T02:27:18;6.40;;;3.50;;
66987;SDS011;53908;51.464;-2.588;2022-07-18T02:29:45;7.05;;;4.15;;
66987;SDS011;53908;51.464;-2.588;2022-07-18T02:32:11;5.40;;;3.63;;
66987;SDS011;53908;51.464;-2.588;2022-07-18T02:34:36;9.45;;;3.95;;
66987;SDS011;53908;51.464;-2.588;2022-07-18T02:37:02;7.03;;;3.85;;
66987;SDS011;53908;51.464;-2.588;2022-07-18T02:39:28;6.53;;;3.70;;
66987;SDS011;53908;51.464;-2.588;2022-07-18T02:41:53;6.10;;;3.45;;
66987;SDS011;53908;51.464;-2.588;2022-07-18T02:44:19;6.25;;;3.53;;
66987;SDS011;53908;51.464;-2.588;2022-07-18T02:46:45;5.40;;;3.75;;
66987;SDS011;53908;51.464;-2.588;2022-07-18T02:49:10;5.47;;;3.50;;
66987;SDS011;53908;51.464;-2.588;2022-07-18T02:51:51;7.50;;;3.63;;
66987;SDS011;53908;51.464;-2.588;2022-07-18T02:54:29;5.53;;;3.58;;
66987;SDS011;53908;51.464;-2.588;2022-07-18T02:56:55;4.97;;;3.50;;
66987;SDS011;53908;51.464;-2.588;2022-07-18T02:59:21;7.95;;;3.88;;
66987;SDS011;53908;51.464;-2.588;2022-07-18T03:01:47;4.70;;;3.55;;
66987;SDS011;53908;51.464;-2.588;2022-07-18T03:04:14;9.98;;;3.80;;
66987;SDS011;53908;51.464;-2.588;2022-07-18T03:06:39;6.53;;;3.97;;
66987;SDS011;53908;51.464;-2.588;2022-07-18T03:09:05;7.70;;;4.00;;
66987;SDS011;53908;51.464;-2.588;2022-07-18T03:11:30;5.70;;;4.07;;
66987;SDS011;53908;51.464;-2.588;2022-07-18T03:13:56;6.80;;;4.03;;
66987;SDS011;53908;51.464;-2.588;2022-07-18T03:16:21;6.78;;;4.10;;
66987;SDS011;53908;51.464;-2.588;2022-07-18T03:18:47;9.80;;;4.13;;
66987;SDS011;53908;51.464;-2.588;2022-07-18T03:21:12;5.88;;;3.90;;
66987;SDS011;53908;51.464;-2.588;2022-07-18T03:23:37;7.03;;;4.15;;
66987;SDS011;53908;51.464;-2.588;2022-07-18T03:26:03;7.97;;;3.90;;
66987;SDS011;53908;51.464;-2.588;2022-07-18T03:28:28;7.88;;;4.00;;
66987;SDS011;53908;51.464;-2.588;2022-07-18T03:30:54;8.43;;;3.75;;
66987;SDS011;53908;51.464;-2.588;2022-07-18T03:33:19;5.93;;;3.70;;
66987;SDS011;53908;51.464;-2.588;2022-07-18T03:35:44;6.88;;;3.88;;
66987;SDS011;53908;51.464;-2.588;2022-07-18T03:38:10;7.22;;;3.90;;
66987;SDS011;53908;51.464;-2.588;2022-07-18T03:40:35;12.10;;;3.80;;
66987;SDS011;53908;51.464;-2.588;2022-07-18T03:43:01;6.15;;;3.92;;
66987;SDS011;53908;51.464;-2.588;2022-07-18T03:45:26;6.65;;;3.88;;
66987;SDS011;53908;51.464;-2.588;2022-07-18T03:47:52;6.95;;;3.95;;
66987;SDS011;53908;51.464;-2.588;2022-07-18T03:50:17;6.43;;;3.85;;
66987;SDS011;53908;51.464;-2.588;2022-07-18T03:52:42;8.05;;;4.05;;
66987;SDS011;53908;51.464;-2.588;2022-07-18T03:55:08;6.68;;;3.67;;
66987;SDS011;53908;51.464;-2.588;2022-07-18T03:57:35;7.40;;;4.00;;
66987;SDS011;53908;51.464;-2.588;2022-07-18T04:00:00;9.18;;;3.78;;
66987;SDS011;53908;51.464;-2.588;2022-07-18T04:02:26;7.28;;;4.20;;
66987;SDS011;53908;51.464;-2.588;2022-07-18T04:04:52;6.05;;;4.10;;
66987;SDS011;53908;51.464;-2.588;2022-07-18T04:07:17;7.25;;;3.75;;
66987;SDS011;53908;51.464;-2.588;2022-07-18T04:09:42;6.75;;;3.88;;
66987;SDS011;53908;51.464;-2.588;2022-07-18T04:12:08;12.05;;;4.05;;
66987;SDS011;53908;51.464;-2.588;2022-07-18T04:14:33;9.07;;;4.25;;
66987;SDS011;53908;51.464;-2.588;2022-07-18T04:16:59;7.35;;;4.18;;
66987;SDS011;53908;51.464;-2.588;2022-07-18T04:19:24;11.55;;;3.97;;
66987;SDS011;53908;51.464;-2.588;2022-07-18T04:21:50;5.35;;;3.60;;
66987;SDS011;53908;51.464;-2.588;2022-07-18T04:24:15;7.72;;;4.18;;
66987;SDS011;53908;51.464;-2.588;2022-07-18T04:26:44;8.27;;;4.30;;
66987;SDS011;53908;51.464;-2.588;2022-07-18T04:29:09;15.05;;;4.32;;
66987;SDS011;53908;51.464;-2.588;2022-07-18T04:31:34;10.55;;;3.88;;
66987;SDS011;53908;51.464;-2.588;2022-07-18T04:34:00;10.25;;;3.90;;
66987;SDS011;53908;51.464;-2.588;2022-07-18T04:36:25;9.43;;;4.30;;
66987;SDS011;53908;51.464;-2.588;2022-07-18T04:38:51;14.00;;;4.50;;
66987;SDS011;53908;51.464;-2.588;2022-07-18T04:41:17;14.73;;;4.18;;
66987;SDS011;53908;51.464;-2.588;2022-07-18T04:43:44;10.82;;;4.30;;
66987;SDS011;53908;51.464;-2.588;2022-07-18T04:46:10;6.13;;;4.13;;
66987;SDS011;53908;51.464;-2.588;2022-07-18T04:48:35;10.57;;;4.05;;
66987;SDS011;53908;51.464;-2.588;2022-07-18T04:51:02;6.50;;;3.95;;
66987;SDS011;53908;51.464;-2.588;2022-07-18T04:53:27;7.07;;;3.90;;
66987;SDS011;53908;51.464;-2.588;2022-07-18T04:55:52;6.65;;;4.40;;
66987;SDS011;53908;51.464;-2.588;2022-07-18T04:58:18;6.70;;;4.07;;
66987;SDS011;53908;51.464;-2.588;2022-07-18T05:00:44;10.95;;;4.30;;
66987;SDS011;53908;51.464;-2.588;2022-07-18T05:03:10;5.47;;;3.58;;
66987;SDS011;53908;51.464;-2.588;2022-07-18T05:05:35;6.22;;;4.13;;
66987;SDS011;53908;51.464;-2.588;2022-07-18T05:08:01;9.30;;;4.05;;
66987;SDS011;53908;51.464;-2.588;2022-07-18T05:10:26;7.30;;;4.13;;
66987;SDS011;53908;51.464;-2.588;2022-07-18T05:12:52;6.47;;;3.88;;
66987;SDS011;53908;51.464;-2.588;2022-07-18T05:15:19;6.72;;;3.95;;
66987;SDS011;53908;51.464;-2.588;2022-07-18T05:17:46;9.45;;;3.95;;
66987;SDS011;53908;51.464;-2.588;2022-07-18T05:20:13;8.38;;;3.95;;
66987;SDS011;53908;51.464;-2.588;2022-07-18T05:22:40;14.48;;;4.00;;
66987;SDS011;53908;51.464;-2.588;2022-07-18T05:25:06;14.95;;;3.70;;
66987;SDS011;53908;51.464;-2.588;2022-07-18T05:27:32;10.70;;;4.10;;
66987;SDS011;53908;51.464;-2.588;2022-07-18T05:29:58;11.48;;;3.95;;
66987;SDS011;53908;51.464;-2.588;2022-07-18T05:32:24;21.13;;;3.70;;
66987;SDS011;53908;51.464;-2.588;2022-07-18T05:34:50;7.72;;;3.85;;
66987;SDS011;53908;51.464;-2.588;2022-07-18T05:37:15;7.70;;;3.65;;
66987;SDS011;53908;51.464;-2.588;2022-07-18T05:39:41;6.03;;;3.25;;
66987;SDS011;53908;51.464;-2.588;2022-07-18T05:42:06;6.30;;;3.55;;
66987;SDS011;53908;51.464;-2.588;2022-07-18T05:44:32;8.68;;;3.88;;
66987;SDS011;53908;51.464;-2.588;2022-07-18T05:46:57;4.95;;;3.65;;
66987;SDS011;53908;51.464;-2.588;2022-07-18T05:49:23;5.57;;;3.70;;
66987;SDS011;53908;51.464;-2.588;2022-07-18T05:51:48;6.65;;;4.10;;
66987;SDS011;53908;51.464;-2.588;2022-07-18T05:54:13;6.72;;;3.78;;
66987;SDS011;53908;51.464;-2.588;2022-07-18T05:56:44;6.75;;;4.00;;
66987;SDS011;53908;51.464;-2.588;2022-07-18T05:59:13;6.13;;;3.75;;
66987;SDS011;53908;51.464;-2.588;2022-07-18T06:01:38;6.22;;;3.67;;
66987;SDS011;53908;51.464;-2.588;2022-07-18T06:04:04;6.43;;;3.78;;
66987;SDS011;53908;51.464;-2.588;2022-07-18T06:06:30;6.13;;;3.55;;
66987;SDS011;53908;51.464;-2.588;2022-07-18T06:08:56;6.22;;;4.05;;
66987;SDS011;53908;51.464;-2.588;2022-07-18T06:11:21;5.43;;;3.58;;
66987;SDS011;53908;51.464;-2.588;2022-07-18T06:13:47;6.15;;;3.67;;
66987;SDS011;53908;51.464;-2.588;2022-07-18T06:16:12;7.10;;;3.75;;
66987;SDS011;53908;51.464;-2.588;2022-07-18T06:18:38;7.70;;;3.80;;
66987;SDS011;53908;51.464;-2.588;2022-07-18T06:21:04;5.68;;;4.03;;
66987;SDS011;53908;51.464;-2.588;2022-07-18T06:23:30;9.70;;;4.18;;
66987;SDS011;53908;51.464;-2.588;2022-07-18T06:25:56;10.77;;;3.85;;
66987;SDS011;53908;51.464;-2.588;2022-07-18T06:28:22;8.63;;;4.43;;
66987;SDS011;53908;51.464;-2.588;2022-07-18T06:30:49;8.32;;;4.32;;
66987;SDS011;53908;51.464;-2.588;2022-07-18T06:33:15;5.45;;;3.92;;
66987;SDS011;53908;51.464;-2.588;2022-07-18T06:35:40;6.97;;;4.10;;
66987;SDS011;53908;51.464;-2.588;2022-07-18T06:38:06;7.45;;;4.18;;
66987;SDS011;53908;51.464;-2.588;2022-07-18T06:40:31;6.07;;;4.00;;
66987;SDS011;53908;51.464;-2.588;2022-07-18T06:42:57;9.25;;;5.13;;
66987;SDS011;53908;51.464;-2.588;2022-07-18T06:45:25;12.05;;;4.70;;
66987;SDS011;53908;51.464;-2.588;2022-07-18T06:47:50;8.75;;;4.68;;
66987;SDS011;53908;51.464;-2.588;2022-07-18T06:50:16;8.27;;;5.03;;
66987;SDS011;53908;51.464;-2.588;2022-07-18T06:52:43;8.95;;;5.20;;
66987;SDS011;53908;51.464;-2.588;2022-07-18T06:55:09;9.55;;;4.93;;
66987;SDS011;53908;51.464;-2.588;2022-07-18T06:57:35;8.18;;;5.28;;
66987;SDS011;53908;51.464;-2.588;2022-07-18T07:00:01;9.50;;;6.63;;
66987;SDS011;53908;51.464;-2.588;2022-07-18T07:02:27;9.45;;;4.90;;
66987;SDS011;53908;51.464;-2.588;2022-07-18T07:04:53;8.30;;;5.07;;
66987;SDS011;53908;51.464;-2.588;2022-07-18T07:07:18;13.90;;;5.03;;
66987;SDS011;53908;51.464;-2.588;2022-07-18T07:09:44;10.68;;;5.20;;
66987;SDS011;53908;51.464;-2.588;2022-07-18T07:12:09;10.20;;;5.50;;
66987;SDS011;53908;51.464;-2.588;2022-07-18T07:14:35;11.40;;;6.35;;
66987;SDS011;53908;51.464;-2.588;2022-07-18T07:17:01;13.52;;;6.38;;
66987;SDS011;53908;51.464;-2.588;2022-07-18T07:19:27;11.95;;;7.45;;
66987;SDS011;53908;51.464;-2.588;2022-07-18T07:21:52;10.80;;;6.30;;
66987;SDS011;53908;51.464;-2.588;2022-07-18T07:24:18;10.60;;;6.53;;
66987;SDS011;53908;51.464;-2.588;2022-07-18T07:26:43;8.55;;;5.65;;
66987;SDS011;53908;51.464;-2.588;2022-07-18T07:29:09;8.27;;;5.90;;
66987;SDS011;53908;51.464;-2.588;2022-07-18T07:31:34;10.68;;;6.50;;
66987;SDS011;53908;51.464;-2.588;2022-07-18T07:34:00;11.43;;;6.40;;
66987;SDS011;53908;51.464;-2.588;2022-07-18T07:36:25;8.68;;;5.97;;
66987;SDS011;53908;51.464;-2.588;2022-07-18T07:38:50;10.98;;;6.15;;
66987;SDS011;53908;51.464;-2.588;2022-07-18T07:41:16;11.00;;;5.97;;
66987;SDS011;53908;51.464;-2.588;2022-07-18T07:43:41;12.23;;;6.38;;
66987;SDS011;53908;51.464;-2.588;2022-07-18T07:46:07;12.98;;;6.22;;
66987;SDS011;53908;51.464;-2.588;2022-07-18T07:48:32;11.48;;;5.95;;
66987;SDS011;53908;51.464;-2.588;2022-07-18T07:50:58;27.38;;;6.35;;
66987;SDS011;53908;51.464;-2.588;2022-07-18T07:53:23;11.23;;;5.88;;
66987;SDS011;53908;51.464;-2.588;2022-07-18T07:55:49;10.40;;;5.70;;
66987;SDS011;53908;51.464;-2.588;2022-07-18T07:58:14;9.80;;;5.78;;
66987;SDS011;53908;51.464;-2.588;2022-07-18T08:00:40;9.15;;;5.57;;
66987;SDS011;53908;51.464;-2.588;2022-07-18T08:03:06;15.82;;;6.45;;
66987;SDS011;53908;51.464;-2.588;2022-07-18T08:05:34;13.23;;;6.00;;
66987;SDS011;53908;51.464;-2.588;2022-07-18T08:08:02;11.25;;;5.70;;
66987;SDS011;53908;51.464;-2.588;2022-07-18T08:10:28;8.57;;;5.45;;
66987;SDS011;53908;51.464;-2.588;2022-07-18T08:12:54;8.80;;;5.10;;
66987;SDS011;53908;51.464;-2.588;2022-07-18T08:15:19;10.13;;;5.22;;
66987;SDS011;53908;51.464;-2.588;2022-07-18T08:17:45;7.85;;;5.15;;
66987;SDS011;53908;51.464;-2.588;2022-07-18T08:20:10;14.82;;;5.55;;
66987;SDS011;53908;51.464;-2.588;2022-07-18T08:22:54;14.07;;;5.32;;
66987;SDS011;53908;51.464;-2.588;2022-07-18T08:25:20;16.55;;;5.10;;
66987;SDS011;53908;51.464;-2.588;2022-07-18T08:27:46;7.30;;;5.40;;
66987;SDS011;53908;51.464;-2.588;2022-07-18T08:30:12;7.03;;;4.47;;
66987;SDS011;53908;51.464;-2.588;2022-07-18T08:32:37;11.35;;;5.50;;
66987;SDS011;53908;51.464;-2.588;2022-07-18T08:35:03;12.45;;;5.22;;
66987;SDS011;53908;51.464;-2.588;2022-07-18T08:37:29;13.60;;;5.00;;
66987;SDS011;53908;51.464;-2.588;2022-07-18T08:39:54;6.97;;;4.65;;
66987;SDS011;53908;51.464;-2.588;2022-07-18T08:42:21;15.35;;;5.60;;
66987;SDS011;53908;51.464;-2.588;2022-07-18T08:44:50;13.32;;;6.15;;
66987;SDS011;53908;51.464;-2.588;2022-07-18T08:47:16;11.07;;;5.45;;
66987;SDS011;53908;51.464;-2.588;2022-07-18T08:49:42;15.02;;;5.45;;
66987;SDS011;53908;51.464;-2.588;2022-07-18T08:52:08;17.80;;;5.68;;
66987;SDS011;53908;51.464;-2.588;2022-07-18T08:54:35;14.02;;;5.93;;
66987;SDS011;53908;51.464;-2.588;2022-07-18T08:57:01;13.82;;;5.22;;
66987;SDS011;53908;51.464;-2.588;2022-07-18T08:59:26;11.93;;;5.47;;
66987;SDS011;53908;51.464;-2.588;2022-07-18T09:01:52;9.15;;;5.18;;
66987;SDS011;53908;51.464;-2.588;2022-07-18T09:07:29;15.00;;;5.67;;
66987;SDS011;53908;51.464;-2.588;2022-07-18T09:09:57;8.52;;;5.70;;
66987;SDS011;53908;51.464;-2.588;2022-07-18T09:12:27;16.23;;;5.40;;
66987;SDS011;53908;51.464;-2.588;2022-07-18T09:14:53;12.57;;;5.32;;
66987;SDS011;53908;51.464;-2.588;2022-07-18T09:17:21;17.35;;;5.07;;
66987;SDS011;53908;51.464;-2.588;2022-07-18T09:22:27;11.10;;;5.07;;
66987;SDS011;53908;51.464;-2.588;2022-07-18T09:24:57;11.43;;;4.75;;
66987;SDS011;53908;51.464;-2.588;2022-07-18T09:27:40;14.93;;;5.18;;
66987;SDS011;53908;51.464;-2.588;2022-07-18T09:30:26;18.13;;;5.00;;
66987;SDS011;53908;51.464;-2.588;2022-07-18T09:35:20;9.68;;;4.70;;
66987;SDS011;53908;51.464;-2.588;2022-07-18T09:38:00;12.32;;;4.82;;
66987;SDS011;53908;51.464;-2.588;2022-07-18T09:40:41;8.43;;;5.15;;
66987;SDS011;53908;51.464;-2.588;2022-07-18T09:43:11;12.80;;;4.20;;
66987;SDS011;53908;51.464;-2.588;2022-07-18T09:45:39;7.43;;;4.22;;
66987;SDS011;53908;51.464;-2.588;2022-07-18T09:48:25;15.18;;;4.25;;
66987;SDS011;53908;51.464;-2.588;2022-07-18T09:50:55;7.53;;;3.55;;
66987;SDS011;53908;51.464;-2.588;2022-07-18T09:53:29;8.73;;;3.55;;
66987;SDS011;53908;51.464;-2.588;2022-07-18T09:55:57;8.10;;;3.08;;
66987;SDS011;53908;51.464;-2.588;2022-07-18T09:58:33;8.48;;;3.30;;
66987;SDS011;53908;51.464;-2.588;2022-07-18T10:01:03;9.18;;;3.20;;
66987;SDS011;53908;51.464;-2.588;2022-07-18T10:03:30;12.82;;;3.10;;
66987;SDS011;53908;51.464;-2.588;2022-07-18T10:05:57;3.35;;;2.33;;
66987;SDS011;53908;51.464;-2.588;2022-07-18T10:08:24;6.70;;;2.20;;
66987;SDS011;53908;51.464;-2.588;2022-07-18T10:10:51;3.83;;;2.30;;
66987;SDS011;53908;51.464;-2.588;2022-07-18T10:13:18;4.97;;;1.90;;
66987;SDS011;53908;51.464;-2.588;2022-07-18T10:15:45;3.22;;;2.13;;
66987;SDS011;53908;51.464;-2.588;2022-07-18T10:18:12;6.60;;;2.30;;
66987;SDS011;53908;51.464;-2.588;2022-07-18T10:20:41;7.20;;;2.20;;
66987;SDS011;53908;51.464;-2.588;2022-07-18T10:23:16;4.72;;;2.05;;
66987;SDS011;53908;51.464;-2.588;2022-07-18T10:25:44;4.45;;;2.10;;
66987;SDS011;53908;51.464;-2.588;2022-07-18T10:28:11;4.43;;;2.00;;
66987;SDS011;53908;51.464;-2.588;2022-07-18T10:30:43;3.10;;;1.85;;
66987;SDS011;53908;51.464;-2.588;2022-07-18T10:36:20;7.57;;;2.00;;
66987;SDS011;53908;51.464;-2.588;2022-07-18T10:44:46;5.55;;;1.80;;
66987;SDS011;53908;51.464;-2.588;2022-07-18T10:57:40;2.92;;;1.77;;
66987;SDS011;53908;51.464;-2.588;2022-07-18T11:02:45;4.50;;;1.60;;
66987;SDS011;53908;51.464;-2.588;2022-07-18T11:21:16;5.63;;;1.70;;
66987;SDS011;53908;51.464;-2.588;2022-07-18T11:24:06;2.15;;;1.50;;
66987;SDS011;53908;51.464;-2.588;2022-07-18T11:26:37;6.32;;;2.00;;
66987;SDS011;53908;51.464;-2.588;2022-07-18T11:29:04;1.60;;;1.50;;
66987;SDS011;53908;51.464;-2.588;2022-07-18T11:31:31;3.35;;;1.70;;
66987;SDS011;53908;51.464;-2.588;2022-07-18T11:33:59;5.18;;;1.55;;
66987;SDS011;53908;51.464;-2.588;2022-07-18T11:36:29;2.80;;;1.30;;
66987;SDS011;53908;51.464;-2.588;2022-07-18T11:38:57;3.00;;;1.60;;
66987;SDS011;53908;51.464;-2.588;2022-07-18T11:43:52;2.35;;;1.58;;
66987;SDS011;53908;51.464;-2.588;2022-07-18T11:46:19;2.08;;;1.50;;
66987;SDS011;53908;51.464;-2.588;2022-07-18T11:48:47;1.77;;;1.40;;
66987;SDS011;53908;51.464;-2.588;2022-07-18T11:51:14;7.13;;;1.40;;
66987;SDS011;53908;51.464;-2.588;2022-07-18T11:53:45;4.47;;;1.40;;
66987;SDS011;53908;51.464;-2.588;2022-07-18T11:56:14;3.30;;;1.40;;
66987;SDS011;53908;51.464;-2.588;2022-07-18T11:58:41;3.08;;;1.40;;
66987;SDS011;53908;51.464;-2.588;2022-07-18T12:01:07;6.25;;;1.40;;
66987;SDS011;53908;51.464;-2.588;2022-07-18T12:03:36;2.28;;;1.60;;
66987;SDS011;53908;51.464;-2.588;2022-07-18T12:06:15;3.45;;;1.33;;
66987;SDS011;53908;51.464;-2.588;2022-07-18T12:08:47;5.53;;;1.50;;
66987;SDS011;53908;51.464;-2.588;2022-07-18T12:11:30;6.35;;;1.50;;
66987;SDS011;53908;51.464;-2.588;2022-07-18T12:24:19;8.10;;;1.70;;
66987;SDS011;53908;51.464;-2.588;2022-07-18T12:26:47;4.47;;;1.85;;
66987;SDS011;53908;51.464;-2.588;2022-07-18T12:29:13;1.92;;;1.40;;
66987;SDS011;53908;51.464;-2.588;2022-07-18T12:31:42;3.35;;;1.60;;
66987;SDS011;53908;51.464;-2.588;2022-07-18T12:39:29;6.68;;;1.70;;
66987;SDS011;53908;51.464;-2.588;2022-07-18T12:41:56;4.78;;;1.70;;
66987;SDS011;53908;51.464;-2.588;2022-07-18T12:44:22;4.97;;;1.70;;
66987;SDS011;53908;51.464;-2.588;2022-07-18T12:46:49;9.63;;;1.80;;
66987;SDS011;53908;51.464;-2.588;2022-07-18T12:49:15;13.02;;;1.77;;
66987;SDS011;53908;51.464;-2.588;2022-07-18T12:51:40;7.32;;;1.70;;
66987;SDS011;53908;51.464;-2.588;2022-07-18T12:54:05;5.28;;;1.77;;
66987;SDS011;53908;51.464;-2.588;2022-07-18T12:56:31;6.03;;;1.88;;
66987;SDS011;53908;51.464;-2.588;2022-07-18T12:58:56;8.88;;;1.83;;
66987;SDS011;53908;51.464;-2.588;2022-07-18T13:01:22;9.25;;;1.80;;
66987;SDS011;53908;51.464;-2.588;2022-07-18T13:03:47;4.63;;;2.30;;
66987;SDS011;53908;51.464;-2.588;2022-07-18T13:06:13;2.92;;;1.60;;
66987;SDS011;53908;51.464;-2.588;2022-07-18T13:08:39;2.42;;;1.50;;
66987;SDS011;53908;51.464;-2.588;2022-07-18T13:11:04;3.85;;;1.60;;
66987;SDS011;53908;51.464;-2.588;2022-07-18T13:13:29;5.85;;;1.80;;
66987;SDS011;53908;51.464;-2.588;2022-07-18T13:15:55;6.68;;;1.60;;
66987;SDS011;53908;51.464;-2.588;2022-07-18T13:18:20;1.60;;;1.50;;
66987;SDS011;53908;51.464;-2.588;2022-07-18T13:20:46;2.45;;;1.50;;
66987;SDS011;53908;51.464;-2.588;2022-07-18T13:23:12;5.40;;;1.70;;
66987;SDS011;53908;51.464;-2.588;2022-07-18T13:25:39;4.43;;;1.58;;
66987;SDS011;53908;51.464;-2.588;2022-07-18T13:28:04;6.43;;;1.45;;
66987;SDS011;53908;51.464;-2.588;2022-07-18T13:30:29;4.30;;;1.60;;
66987;SDS011;53908;51.464;-2.588;2022-07-18T13:32:55;7.15;;;1.60;;
66987;SDS011;53908;51.464;-2.588;2022-07-18T13:35:21;8.05;;;1.58;;
66987;SDS011;53908;51.464;-2.588;2022-07-18T13:37:46;4.07;;;1.67;;
66987;SDS011;53908;51.464;-2.588;2022-07-18T13:40:12;4.88;;;1.60;;
66987;SDS011;53908;51.464;-2.588;2022-07-18T13:42:39;3.97;;;1.80;;
66987;SDS011;53908;51.464;-2.588;2022-07-18T13:45:05;4.15;;;1.63;;
66987;SDS011;53908;51.464;-2.588;2022-07-18T13:47:31;1.88;;;1.58;;
66987;SDS011;53908;51.464;-2.588;2022-07-18T13:49:56;5.22;;;1.67;;
66987;SDS011;53908;51.464;-2.588;2022-07-18T13:52:23;2.75;;;1.90;;
66987;SDS011;53908;51.464;-2.588;2022-07-18T13:54:49;6.30;;;2.00;;
66987;SDS011;53908;51.464;-2.588;2022-07-18T13:57:16;4.93;;;2.22;;
66987;SDS011;53908;51.464;-2.588;2022-07-18T13:59:41;5.70;;;1.92;;
66987;SDS011;53908;51.464;-2.588;2022-07-18T14:02:07;5.78;;;2.00;;
66987;SDS011;53908;51.464;-2.588;2022-07-18T14:04:33;6.25;;;1.80;;
66987;SDS011;53908;51.464;-2.588;2022-07-18T14:06:58;8.05;;;2.00;;
66987;SDS011;53908;51.464;-2.588;2022-07-18T14:09:24;4.38;;;1.98;;
66987;SDS011;53908;51.464;-2.588;2022-07-18T14:11:49;3.45;;;1.83;;
66987;SDS011;53908;51.464;-2.588;2022-07-18T14:14:15;2.58;;;2.20;;
66987;SDS011;53908;51.464;-2.588;2022-07-18T14:16:40;6.68;;;1.80;;
66987;SDS011;53908;51.464;-2.588;2022-07-18T14:19:05;3.28;;;1.77;;
66987;SDS011;53908;51.464;-2.588;2022-07-18T14:21:31;9.23;;;1.90;;
66987;SDS011;53908;51.464;-2.588;2022-07-18T14:23:57;4.97;;;1.90;;
66987;SDS011;53908;51.464;-2.588;2022-07-18T14:26:23;2.42;;;1.83;;
66987;SDS011;53908;51.464;-2.588;2022-07-18T14:28:49;7.72;;;2.28;;
66987;SDS011;53908;51.464;-2.588;2022-07-18T14:31:14;6.40;;;1.95;;
66987;SDS011;53908;51.464;-2.588;2022-07-18T14:33:40;3.42;;;1.90;;
66987;SDS011;53908;51.464;-2.588;2022-07-18T14:36:05;5.65;;;1.98;;
66987;SDS011;53908;51.464;-2.588;2022-07-18T14:38:31;9.70;;;1.83;;
66987;SDS011;53908;51.464;-2.588;2022-07-18T14:40:56;6.93;;;1.90;;
66987;SDS011;53908;51.464;-2.588;2022-07-18T14:43:21;5.72;;;1.90;;
66987;SDS011;53908;51.464;-2.588;2022-07-18T14:45:47;6.97;;;2.05;;
66987;SDS011;53908;51.464;-2.588;2022-07-18T14:48:14;6.72;;;2.13;;
66987;SDS011;53908;51.464;-2.588;2022-07-18T14:50:39;2.95;;;1.80;;
66987;SDS011;53908;51.464;-2.588;2022-07-18T14:53:05;2.03;;;1.77;;
66987;SDS011;53908;51.464;-2.588;2022-07-18T14:55:30;4.45;;;1.88;;
66987;SDS011;53908;51.464;-2.588;2022-07-18T14:57:56;6.72;;;1.85;;
66987;SDS011;53908;51.464;-2.588;2022-07-18T15:00:21;4.95;;;2.03;;
66987;SDS011;53908;51.464;-2.588;2022-07-18T15:02:47;4.50;;;1.85;;
66987;SDS011;53908;51.464;-2.588;2022-07-18T15:05:12;3.88;;;1.77;;
66987;SDS011;53908;51.464;-2.588;2022-07-18T15:07:38;5.22;;;1.77;;
66987;SDS011;53908;51.464;-2.588;2022-07-18T15:10:04;6.07;;;2.00;;
66987;SDS011;53908;51.464;-2.588;2022-07-18T15:12:30;8.60;;;1.85;;
66987;SDS011;53908;51.464;-2.588;2022-07-18T15:14:57;3.35;;;1.70;;
66987;SDS011;53908;51.464;-2.588;2022-07-18T15:17:23;3.25;;;1.90;;
66987;SDS011;53908;51.464;-2.588;2022-07-18T15:19:49;7.32;;;2.08;;
66987;SDS011;53908;51.464;-2.588;2022-07-18T15:22:15;3.15;;;2.05;;
66987;SDS011;53908;51.464;-2.588;2022-07-18T15:24:40;4.43;;;1.95;;
66987;SDS011;53908;51.464;-2.588;2022-07-18T15:27:05;4.88;;;2.10;;
66987;SDS011;53908;51.464;-2.588;2022-07-18T15:29:31;4.13;;;1.75;;
66987;SDS011;53908;51.464;-2.588;2022-07-18T15:31:57;2.65;;;1.60;;